PABE Airport Information

Runway Information
Runway 01L Length 6400 ft width 150 ft
Elevation 125 ft Threshold 0 ft Heading 23
Runway 19R Length 6400 ft Width 150 ft
Elevation 100 ft Threshold 0 ft Heading 203
Runway 01R Length 4000 ft width 75 ft
Elevation 117 ft Threshold 0 ft Heading 23
Runway 19L Length 4000 ft Width 75 ft
Elevation 112 ft Threshold 0 ft Heading 203
Runway 12 Length 1860 ft width 75 ft
Elevation 123 ft Threshold 0 ft Heading 128
Runway 30 Length 1860 ft Width 75 ft
Elevation 124 ft Threshold 0 ft Heading 308
Airport Frequencies
Type ATIS Name ATIS Frequency 119.8 MHZ
Type CNTR Name ANCHORAGE Frequency 125.2 MHZ
Type CTAF Name CTAF/BETHE Frequency 118.7 MHZ
Type FSS Name KENAI RDO Frequency 122.65 MHZ
Type GND Name GND Frequency 121.7 MHZ
Type MISC Name TWEB Frequency 114.1 MHZ
Type OPS Name NG OPS Frequency 124.65 MHZ
Type TWR Name TWR Frequency 118.7 MHZ
Airport Navaids
Type VORTAC Name Bethel Frequency 114100 KHZ
Type NDB Name Bethel Frequency 344 KHZ
Type NDB Name Oscarville Frequency 251 KHZ
Airport Weather Information & NOTAM
ADDS - METARS form results

(0758 UTC 22 January 2019)
Data provider http://aviationweather.gov/metar/data/
 
METAR text: PABE 220749Z 03010KT 6SM BR FEW018 BKN025 OVC030 M15/M16 A2938 RMK AO2 SNE24 P0000
Conditions at: PABE (BETHEL , AK, US) observed 0749 UTC 22 January 2019
Temperature: -15.0°C ( 5°F)
Dewpoint: -16.0°C ( 3°F) [RH = 92%]
Pressure (altimeter): 29.38 inches Hg (995.0 mb)
Winds: from the NNE (30 degrees) at 12 MPH (10 knots; 5.1 m/s)
Visibility: 6 miles (10 km)
Ceiling: 2500 feet AGL
Clouds: few clouds at 1800 feet AGL
broken clouds at 2500 feet AGL
overcast cloud deck at 3000 feet AGL
Weather: BR  (mist)

METAR text: PABE 220736Z 02010KT 10SM SCT024 OVC031 M15/M17 A2938 RMK AO2 SNE24 P0000 T11501167
Conditions at: PABE (BETHEL , AK, US) observed 0736 UTC 22 January 2019
Temperature: -15.0°C ( 5°F)
Dewpoint: -16.7°C ( 2°F) [RH = 87%]
Pressure (altimeter): 29.38 inches Hg (995.0 mb)
Winds: from the NNE (20 degrees) at 12 MPH (10 knots; 5.1 m/s)
Visibility: 10 or more miles (16+ km)
Ceiling: 3100 feet AGL
Clouds: scattered clouds at 2400 feet AGL
overcast cloud deck at 3100 feet AGL
Weather: no significant weather observed at this time

METAR text: PABE 220712Z 02011KT 3SM -SN BR BKN025 BKN032 OVC042 M16/M17 A2939 RMK AO2 P0000 T11561172
Conditions at: PABE (BETHEL , AK, US) observed 0712 UTC 22 January 2019
Temperature: -15.6°C ( 4°F)
Dewpoint: -17.2°C ( 1°F) [RH = 87%]
Pressure (altimeter): 29.39 inches Hg (995.3 mb)
Winds: from the NNE (20 degrees) at 13 MPH (11 knots; 5.7 m/s)
Visibility: 3 miles ( 5 km)
Ceiling: 2500 feet AGL
Clouds: broken clouds at 2500 feet AGL
broken clouds at 3200 feet AGL
overcast cloud deck at 4200 feet AGL
Weather: -SN BR  (light snow, mist)

Forecast for: PABE (BETHEL , AK, US)
Text: PABE 220531Z 2206/2306 02015KT 4SM -SN SCT015 OVC025
Forecast period: 0600 to 0900 UTC 22 January 2019
Forecast type: FROM: standard forecast or significant change
Winds: from the NNE (20 degrees) at 17 MPH (15 knots; 7.7 m/s)
Visibility: 4 miles (6 km)
Ceiling: 2500 feet AGL
Clouds: scattered clouds at 1500 feet AGL
overcast cloud deck at 2500 feet AGL
Weather: -SN  (light snow)
Text: TEMPO 2206/2207 2SM -SN OVC015
Forecast period: 0600 to 0700 UTC 22 January 2019
Forecast type: TEMPORARY: The following changes expected for less than half the time period
Visibility: 2.00 miles (3.22 km)
Ceiling: 1500 feet AGL
Clouds: overcast cloud deck at 1500 feet AGL
Weather: -SN  (light snow)
Text: FM220900 03013KT P6SM OVC035
Forecast period: 0900 UTC 22 January 2019 to 0000 UTC 23 January 2019
Forecast type: FROM: standard forecast or significant change
Winds: from the NNE (30 degrees) at 15 MPH (13 knots; 6.7 m/s)
Visibility: 6 or more miles 10+ km)
Ceiling: 3500 feet AGL
Clouds: overcast cloud deck at 3500 feet AGL
Weather: no significant weather forecast for this period
Text: FM230000 06016KT P6SM -SHSN SCT015 BKN025
Forecast period: 0000 to 0600 UTC 23 January 2019
Forecast type: FROM: standard forecast or significant change
Winds: from the ENE (60 degrees) at 18 MPH (16 knots; 8.2 m/s)
Visibility: 6 or more miles 10+ km)
Ceiling: 2500 feet AGL
Clouds: scattered clouds at 1500 feet AGL
broken clouds at 2500 feet AGL
Weather: -SHSN  (light snow showers)